createdAt,value
2023-03-29T00:01:00.175Z,81.67
2023-03-29T00:03:31.376Z,81.61
2023-03-29T00:06:03.006Z,81.39
2023-03-29T00:08:34.370Z,81.11
2023-03-29T00:11:02.543Z,81.01
2023-03-29T00:13:30.841Z,80.79
2023-03-29T00:15:58.750Z,80.73
2023-03-29T00:18:29.455Z,80.82
2023-03-29T00:20:58.250Z,80.48
2023-03-29T00:23:26.407Z,80.46
2023-03-29T00:25:54.474Z,80.49
2023-03-29T00:28:23.609Z,80.31
2023-03-29T00:30:51.851Z,80.13
2023-03-29T00:33:20.960Z,80.16
2023-03-29T00:35:53.631Z,80.04
2023-03-29T00:38:22.055Z,80.11
2023-03-29T00:40:50.076Z,79.97
2023-03-29T00:43:19.246Z,80.03
2023-03-29T00:45:47.378Z,80.04
2023-03-29T00:48:22.727Z,79.70
2023-03-29T00:50:55.040Z,79.59
2023-03-29T00:53:34.667Z,79.66
2023-03-29T00:56:06.566Z,79.52
2023-03-29T00:58:40.500Z,79.47
2023-03-29T01:01:11.577Z,79.62
2023-03-29T01:03:46.602Z,79.48
2023-03-29T01:06:16.215Z,79.48
2023-03-29T01:08:47.852Z,79.61
2023-03-29T01:11:22.273Z,79.53
2023-03-29T01:14:04.671Z,79.69
2023-03-29T01:16:34.253Z,79.58
2023-03-29T01:19:02.625Z,79.28
2023-03-29T01:22:02.171Z,79.16
2023-03-29T01:24:38.026Z,79.37
2023-03-29T01:27:22.924Z,79.47
2023-03-29T01:29:54.624Z,79.43
2023-03-29T01:32:47.996Z,79.55
2023-03-29T01:35:35.796Z,79.65
2023-03-29T01:38:16.248Z,79.51
2023-03-29T01:40:44.456Z,79.31
2023-03-29T01:43:32.535Z,79.21
2023-03-29T01:46:14.574Z,79.14
2023-03-29T01:48:48.282Z,79.13
2023-03-29T01:51:29.785Z,79.00
2023-03-29T01:54:07.565Z,78.72
2023-03-29T01:56:39.200Z,78.72
2023-03-29T01:59:09.867Z,78.69
2023-03-29T02:01:40.556Z,78.77
2023-03-29T02:04:13.325Z,78.61
2023-03-29T02:06:45.607Z,78.62
2023-03-29T02:09:13.590Z,78.74
2023-03-29T02:11:41.881Z,78.92
2023-03-29T02:14:10.584Z,78.97
2023-03-29T02:16:39.696Z,78.95
2023-03-29T02:19:08.042Z,78.76
2023-03-29T02:21:42.585Z,78.62
2023-03-29T02:24:11.457Z,78.72
2023-03-29T02:26:39.866Z,78.40
2023-03-29T02:29:07.836Z,78.22
2023-03-29T02:31:39.179Z,78.04
2023-03-29T02:34:08.012Z,77.77
2023-03-29T02:36:42.381Z,77.71
2023-03-29T02:39:10.558Z,77.44
2023-03-29T02:41:39.141Z,77.50
2023-03-29T02:44:08.417Z,77.64
2023-03-29T02:46:38.412Z,77.53
2023-03-29T02:49:06.757Z,77.29
2023-03-29T02:51:36.937Z,77.54
2023-03-29T02:54:08.324Z,77.31
2023-03-29T02:56:48.388Z,77.40
2023-03-29T02:59:19.511Z,77.39
2023-03-29T03:01:47.597Z,77.13
2023-03-29T03:04:15.823Z,76.92
2023-03-29T03:06:47.119Z,76.79
2023-03-29T03:09:15.750Z,76.74
2023-03-29T03:11:47.120Z,76.39
2023-03-29T03:14:16.795Z,76.35
2023-03-29T03:16:45.010Z,76.24
2023-03-29T03:19:14.194Z,76.35
2023-03-29T03:21:43.259Z,76.27
2023-03-29T03:24:11.131Z,76.02
2023-03-29T03:26:39.449Z,75.96
2023-03-29T03:29:08.093Z,75.96
2023-03-29T03:32:14.682Z,76.02
2023-03-29T03:34:48.483Z,75.76
2023-03-29T03:37:16.794Z,75.71
2023-03-29T03:39:46.921Z,75.88
2023-03-29T03:42:15.103Z,76.02
2023-03-29T03:44:46.808Z,76.07
2023-03-29T03:47:44.626Z,76.14
2023-03-29T03:50:24.373Z,76.17
2023-03-29T03:52:52.713Z,76.22
2023-03-29T03:55:26.001Z,76.31
2023-03-29T03:58:17.252Z,76.33
2023-03-29T04:00:47.872Z,76.26
2023-03-29T04:03:37.986Z,76.27
2023-03-29T04:06:06.725Z,76.31
2023-03-29T04:09:02.487Z,76.25
2023-03-29T04:11:40.917Z,76.25
2023-03-29T04:14:10.446Z,76.32
2023-03-29T04:16:57.054Z,76.17
2023-03-29T04:19:44.524Z,76.25
2023-03-29T04:22:16.681Z,76.33
2023-03-29T04:24:45.760Z,76.26
2023-03-29T04:27:31.651Z,76.13
2023-03-29T04:30:04.445Z,76.22
2023-03-29T04:32:51.427Z,76.33
2023-03-29T04:35:20.324Z,76.32
2023-03-29T04:37:51.364Z,76.06
2023-03-29T04:40:22.462Z,76.19
2023-03-29T04:43:01.046Z,75.90
2023-03-29T04:45:29.161Z,75.90
2023-03-29T04:48:13.756Z,75.99
2023-03-29T04:50:47.504Z,76.01
2023-03-29T04:53:16.453Z,76.13
2023-03-29T04:55:47.129Z,76.02
2023-03-29T04:58:22.174Z,75.81
2023-03-29T05:00:58.280Z,75.81
2023-03-29T05:03:32.466Z,75.67
2023-03-29T05:06:08.777Z,75.43
2023-03-29T05:08:39.312Z,75.40
2023-03-29T05:11:31.661Z,75.61
2023-03-29T05:14:03.263Z,75.65
2023-03-29T05:16:34.631Z,75.56
2023-03-29T05:19:02.742Z,75.62
2023-03-29T05:21:33.505Z,75.47
2023-03-29T05:24:03.169Z,75.29
2023-03-29T05:26:51.832Z,74.91
2023-03-29T05:29:19.729Z,74.91
2023-03-29T05:31:53.088Z,74.77
2023-03-29T05:34:21.302Z,74.58
2023-03-29T05:36:52.580Z,74.51
2023-03-29T05:39:21.260Z,74.70
2023-03-29T05:41:50.166Z,74.56
2023-03-29T05:44:27.058Z,74.45
2023-03-29T05:46:59.872Z,74.42
2023-03-29T05:49:27.885Z,74.44
2023-03-29T05:52:21.063Z,74.38
2023-03-29T05:54:49.156Z,74.32
2023-03-29T05:57:17.415Z,74.46
2023-03-29T05:59:47.030Z,74.33
2023-03-29T06:02:16.047Z,74.29
2023-03-29T06:04:48.401Z,74.35
2023-03-29T06:07:26.956Z,74.29
2023-03-29T06:10:14.202Z,73.92
2023-03-29T06:12:45.211Z,73.96
2023-03-29T06:15:16.621Z,74.07
2023-03-29T06:17:48.118Z,74.05
2023-03-29T06:20:17.213Z,73.96
2023-03-29T06:22:48.552Z,73.78
2023-03-29T06:25:19.752Z,73.73
2023-03-29T06:27:49.649Z,73.76
2023-03-29T06:30:19.732Z,73.57
2023-03-29T06:33:07.058Z,73.64
2023-03-29T06:35:52.272Z,73.84
2023-03-29T06:38:26.748Z,73.86
2023-03-29T06:41:06.616Z,74.00
2023-03-29T06:43:50.619Z,73.76
2023-03-29T06:46:19.756Z,73.79
2023-03-29T06:48:58.235Z,73.69
2023-03-29T06:51:34.046Z,73.85
2023-03-29T06:54:02.256Z,73.81
2023-03-29T06:56:32.229Z,73.68
2023-03-29T06:59:04.822Z,73.17
2023-03-29T07:01:37.553Z,73.09
2023-03-29T07:04:23.504Z,72.94
2023-03-29T07:07:22.132Z,72.82
2023-03-29T07:09:55.399Z,72.88
2023-03-29T07:12:54.382Z,72.79
2023-03-29T07:15:22.553Z,72.65
2023-03-29T07:18:23.828Z,72.47
2023-03-29T07:20:52.526Z,72.50
2023-03-29T07:23:20.509Z,72.53
2023-03-29T07:25:50.661Z,73.56
2023-03-29T07:28:18.733Z,73.74
2023-03-29T07:30:49.715Z,73.22
2023-03-29T07:33:20.823Z,72.85
2023-03-29T07:36:02.051Z,72.07
2023-03-29T07:38:45.259Z,71.61
2023-03-29T07:41:18.078Z,71.39
2023-03-29T07:43:48.415Z,71.30
2023-03-29T07:46:19.791Z,71.48
2023-03-29T07:48:51.337Z,71.39
2023-03-29T07:51:19.206Z,71.43
2023-03-29T08:17:31.867Z,73.53
2023-03-29T08:20:00.109Z,73.67
2023-03-29T08:22:28.467Z,73.65
2023-03-29T08:25:19.968Z,73.82
2023-03-29T08:27:50.705Z,73.74
2023-03-29T08:30:27.863Z,73.85
2023-03-29T08:32:58.325Z,73.75
2023-03-29T08:35:26.612Z,73.31
2023-03-29T08:38:10.638Z,72.99
2023-03-29T08:40:39.356Z,73.01
2023-03-29T08:43:26.059Z,72.83
2023-03-29T08:46:34.736Z,72.82
2023-03-29T08:49:12.634Z,72.89
2023-03-29T08:51:42.868Z,72.83
2023-03-29T08:54:19.599Z,72.85
2023-03-29T08:57:28.036Z,72.76
2023-03-29T09:00:05.535Z,72.50
2023-03-29T09:02:35.342Z,72.29
2023-03-29T09:05:34.493Z,72.70
2023-03-29T09:08:31.801Z,72.95
2023-03-29T09:11:19.590Z,73.34
2023-03-29T09:14:04.258Z,73.25
2023-03-29T09:16:53.271Z,73.08
2023-03-29T09:19:43.915Z,73.14
2023-03-29T09:22:19.748Z,72.99
2023-03-29T09:24:59.928Z,72.77
2023-03-29T09:27:39.828Z,72.82
2023-03-29T09:30:41.648Z,72.14
2023-03-29T09:33:25.558Z,71.88
2023-03-29T09:36:10.258Z,71.78
2023-03-29T09:38:47.145Z,71.42
2023-03-29T09:41:24.907Z,71.16
2023-03-29T09:43:53.041Z,70.86
2023-03-29T09:46:57.974Z,70.71
2023-03-29T09:49:36.058Z,70.84
2023-03-29T09:52:06.749Z,70.82
2023-03-29T09:54:48.790Z,70.37
2023-03-29T09:57:39.283Z,70.39
2023-03-29T10:00:10.665Z,70.39
2023-03-29T10:02:42.169Z,70.76
2023-03-29T10:05:15.724Z,70.91
2023-03-29T10:07:51.459Z,70.84
2023-03-29T10:10:34.048Z,70.89
2023-03-29T10:13:05.543Z,70.88
2023-03-29T10:15:39.838Z,70.66
2023-03-29T10:18:12.754Z,70.75
2023-03-29T10:20:41.147Z,70.75
2023-03-29T10:23:10.346Z,70.38
2023-03-29T10:25:42.451Z,70.34
2023-03-29T10:28:16.516Z,70.47
2023-03-29T10:30:45.960Z,70.00
2023-03-29T10:33:19.812Z,69.79
2023-03-29T10:35:47.638Z,69.56
2023-03-29T10:38:18.276Z,69.66
2023-03-29T10:40:48.177Z,69.36
2023-03-29T10:43:24.623Z,69.44
2023-03-29T10:46:06.820Z,69.43
2023-03-29T10:48:36.010Z,69.74
2023-03-29T10:51:05.689Z,69.91
2023-03-29T10:53:35.935Z,69.88
2023-03-29T10:56:03.753Z,69.45
2023-03-29T10:59:02.322Z,69.48
2023-03-29T11:01:35.143Z,69.39
2023-03-29T11:04:16.033Z,69.07
2023-03-29T13:22:10.112Z,68.27
2023-03-29T13:24:56.580Z,68.55
2023-03-29T13:27:36.274Z,68.32
2023-03-29T13:30:13.580Z,68.16
2023-03-29T13:33:11.337Z,68.29
2023-03-29T13:35:59.061Z,68.13
2023-03-29T13:38:28.699Z,67.90
2023-03-29T13:41:23.114Z,67.88
2023-03-29T13:43:54.394Z,67.45
2023-03-29T13:46:37.200Z,67.30
2023-03-29T13:49:20.659Z,67.08
2023-03-29T13:52:09.474Z,67.07
2023-03-29T13:54:43.067Z,67.31
2023-03-29T13:57:23.275Z,67.31
2023-03-29T14:00:12.287Z,67.39
2023-03-29T14:02:48.737Z,67.52
2023-03-29T14:05:19.776Z,67.54
2023-03-29T14:07:50.440Z,67.55
2023-03-29T14:10:33.158Z,67.52
2023-03-29T14:13:04.034Z,67.35
2023-03-29T14:15:48.682Z,67.46
2023-03-29T14:18:19.192Z,67.44
2023-03-29T14:20:49.224Z,67.15
2023-03-29T14:23:24.856Z,67.34
2023-03-29T14:25:52.899Z,67.47
2023-03-29T14:28:24.799Z,67.35
2023-03-29T14:30:53.733Z,67.30
2023-03-29T14:33:29.576Z,67.46
2023-03-29T14:35:58.840Z,67.64
2023-03-29T14:38:27.899Z,67.55
2023-03-29T14:40:59.073Z,67.40
2023-03-29T14:43:30.459Z,67.38
2023-03-29T14:45:58.837Z,67.21
2023-03-29T14:48:28.012Z,67.24
2023-03-29T14:50:56.199Z,67.27
2023-03-29T14:53:24.702Z,67.39
2023-03-29T14:55:53.096Z,67.43
2023-03-29T14:58:24.814Z,67.42
2023-03-29T15:00:52.816Z,67.38
2023-03-29T15:03:26.410Z,67.47
2023-03-29T15:05:58.613Z,67.78
2023-03-29T15:08:38.377Z,67.99
2023-03-29T15:11:19.045Z,67.86
2023-03-29T15:13:47.532Z,67.80
2023-03-29T15:16:19.286Z,67.78
2023-03-29T15:18:50.029Z,67.79
2023-03-29T15:21:20.619Z,67.95
2023-03-29T15:23:52.461Z,67.88
2023-03-29T15:26:26.932Z,67.94
2023-03-29T15:29:12.520Z,67.86
2023-03-29T15:31:41.885Z,67.84
2023-03-29T15:34:12.651Z,67.89
2023-03-29T15:36:45.271Z,67.56
2023-03-29T15:39:17.206Z,67.59
2023-03-29T15:41:46.380Z,67.52
2023-03-29T15:44:19.838Z,67.76
2023-03-29T15:46:48.013Z,67.51
2023-03-29T15:49:16.322Z,67.53
2023-03-29T15:51:44.192Z,67.63
2023-03-29T15:54:12.134Z,67.75
2023-03-29T15:56:53.620Z,67.67
2023-03-29T15:59:22.004Z,67.91
2023-03-29T16:01:50.256Z,68.09
2023-03-29T16:04:21.982Z,68.21
2023-03-29T16:06:52.884Z,68.14
2023-03-29T16:09:21.658Z,67.81
2023-03-29T16:11:52.626Z,67.85
2023-03-29T16:14:27.399Z,67.95
2023-03-29T16:16:55.734Z,67.94
2023-03-29T16:19:25.290Z,68.25
2023-03-29T16:21:53.674Z,68.27
2023-03-29T16:24:24.736Z,68.24
2023-03-29T16:26:55.404Z,68.34
2023-03-29T16:29:24.920Z,68.44
2023-03-29T16:31:53.413Z,68.24
2023-03-29T16:34:23.104Z,68.42
2023-03-29T16:36:52.973Z,68.49
2023-03-29T16:39:27.134Z,68.65
2023-03-29T16:41:55.469Z,68.59
2023-03-29T16:44:25.778Z,68.68
2023-03-29T16:46:59.781Z,68.69
2023-03-29T16:49:28.504Z,68.70
2023-03-29T16:52:01.042Z,68.84
2023-03-29T16:54:32.712Z,68.77
2023-03-29T16:57:00.729Z,68.93
2023-03-29T16:59:28.700Z,68.98
2023-03-29T17:01:56.947Z,69.21
2023-03-29T17:04:25.451Z,69.23
2023-03-29T17:06:53.671Z,69.45
2023-03-29T17:09:21.870Z,69.46
2023-03-29T17:11:49.827Z,69.45
2023-03-29T17:14:17.690Z,69.51
2023-03-29T17:16:46.449Z,69.58
2023-03-29T17:19:14.463Z,69.51
2023-03-29T17:21:42.536Z,69.55
2023-03-29T17:24:15.351Z,69.53
2023-03-29T17:26:45.721Z,69.57
2023-03-29T17:29:13.989Z,69.55
2023-03-29T17:31:47.954Z,69.42
2023-03-29T17:34:17.740Z,69.67
2023-03-29T17:36:45.987Z,69.61
2023-03-29T17:39:15.519Z,69.51
2023-03-29T17:41:43.650Z,69.39
2023-03-29T17:44:13.476Z,69.44
2023-03-29T17:46:42.278Z,69.05
2023-03-29T17:49:16.986Z,68.96
2023-03-29T17:51:46.447Z,69.11
2023-03-29T17:54:14.466Z,69.23
2023-03-29T17:56:42.389Z,69.03
2023-03-29T17:59:10.616Z,68.88
2023-03-29T18:01:39.511Z,68.72
2023-03-29T18:04:08.019Z,68.74
2023-03-29T18:06:36.399Z,68.88
2023-03-29T18:09:13.136Z,68.77
2023-03-29T18:11:42.631Z,68.76
2023-03-29T18:14:10.606Z,68.49
2023-03-29T18:16:42.004Z,68.20
2023-03-29T18:19:13.596Z,68.28
2023-03-29T18:21:41.600Z,68.30
2023-03-29T18:24:09.756Z,68.19
2023-03-29T18:26:37.641Z,68.11
2023-03-29T18:29:11.148Z,68.09
2023-03-29T18:31:41.155Z,68.02
2023-03-29T18:34:09.128Z,68.18
2023-03-29T18:36:38.045Z,67.97
2023-03-29T18:39:07.504Z,67.87
2023-03-29T18:41:37.402Z,67.97
2023-03-29T18:44:07.845Z,67.85
2023-03-29T18:46:37.602Z,67.86
2023-03-29T18:49:07.634Z,68.01
2023-03-29T18:51:36.541Z,68.00
2023-03-29T18:54:06.479Z,68.02
2023-03-29T18:56:35.546Z,68.07
2023-03-29T18:59:06.485Z,67.97
2023-03-29T19:01:35.453Z,67.89
2023-03-29T19:04:03.370Z,67.87
2023-03-29T19:06:32.340Z,67.94
2023-03-29T19:09:02.298Z,67.85
2023-03-29T19:11:30.602Z,67.81
2023-03-29T19:13:58.530Z,67.71
2023-03-29T19:16:27.645Z,67.72
2023-03-29T19:18:55.870Z,67.76
2023-03-29T19:21:29.029Z,67.89
2023-03-29T19:23:57.186Z,67.90
2023-03-29T19:26:25.259Z,67.89
2023-03-29T19:28:55.203Z,68.01
2023-03-29T19:31:24.389Z,67.98
2023-03-29T19:33:52.923Z,68.00
2023-03-29T19:36:22.200Z,67.82
2023-03-29T19:38:50.352Z,67.94
2023-03-29T19:41:18.879Z,67.90
2023-03-29T19:43:46.869Z,67.90
2023-03-29T19:46:15.840Z,67.79
2023-03-29T19:48:44.020Z,67.82
2023-03-29T19:51:12.267Z,67.86
2023-03-29T19:53:41.853Z,67.99
2023-03-29T19:56:13.295Z,68.00
2023-03-29T19:58:42.028Z,67.99
2023-03-29T20:01:10.013Z,67.93
2023-03-29T20:03:40.448Z,67.87
2023-03-29T20:06:10.392Z,67.84
2023-03-29T20:08:39.133Z,68.06
2023-03-29T20:11:10.438Z,67.95
2023-03-29T20:13:41.444Z,68.16
2023-03-29T20:16:11.188Z,68.26
2023-03-29T20:18:39.698Z,68.23
2023-03-29T20:21:07.865Z,68.38
2023-03-29T20:23:36.132Z,68.51
2023-03-29T20:26:03.961Z,68.60
2023-03-29T20:28:31.896Z,68.57
2023-03-29T20:31:04.584Z,68.63
2023-03-29T20:33:33.421Z,68.71
2023-03-29T20:36:01.493Z,68.54
2023-03-29T20:38:30.248Z,68.48
2023-03-29T20:40:59.078Z,68.54
2023-03-29T20:43:27.112Z,68.49
2023-03-29T20:45:55.615Z,68.69
2023-03-29T20:48:24.866Z,68.88
2023-03-29T20:50:57.837Z,68.90
2023-03-29T20:53:34.196Z,68.92
2023-03-29T20:56:08.973Z,68.76
2023-03-29T20:58:47.002Z,68.95
2023-03-29T21:01:14.858Z,68.79
2023-03-29T21:03:57.728Z,68.83
2023-03-29T21:06:26.830Z,68.82
2023-03-29T21:08:54.819Z,68.92
2023-03-29T21:11:26.775Z,69.05
2023-03-29T21:13:55.219Z,69.06
2023-03-29T21:16:25.334Z,69.09
2023-03-29T21:18:53.634Z,69.20
2023-03-29T21:21:22.901Z,69.17
2023-03-29T21:23:50.995Z,69.21
2023-03-29T21:26:18.874Z,69.30
2023-03-29T21:28:48.781Z,69.29
2023-03-29T21:31:16.845Z,69.34
2023-03-29T21:33:44.916Z,69.43
2023-03-29T21:36:14.119Z,69.64
2023-03-29T21:38:43.425Z,69.77
2023-03-29T21:41:12.327Z,69.87
2023-03-29T21:43:40.460Z,70.01
2023-03-29T21:46:08.700Z,70.13
2023-03-29T21:48:36.730Z,70.18
2023-03-29T21:51:06.513Z,70.06
2023-03-29T21:53:34.950Z,70.12
2023-03-29T21:56:03.230Z,70.21
2023-03-29T21:58:31.447Z,70.17
2023-03-29T22:00:59.679Z,70.23
2023-03-29T22:03:28.848Z,70.19
2023-03-29T22:06:02.614Z,70.16
2023-03-29T22:08:31.845Z,70.25
2023-03-29T22:11:08.466Z,70.36
2023-03-29T22:13:40.995Z,70.51
2023-03-29T22:16:10.148Z,70.64
2023-03-29T22:18:44.252Z,70.53
2023-03-29T22:21:19.896Z,70.61
2023-03-29T22:23:49.900Z,70.70
2023-03-29T22:26:19.402Z,70.72
2023-03-29T22:28:47.801Z,70.65
2023-03-29T22:31:17.255Z,70.61
2023-03-29T22:33:46.202Z,70.57
2023-03-29T22:36:22.000Z,70.74
2023-03-29T22:38:51.204Z,71.01
2023-03-29T22:41:19.957Z,71.18
2023-03-29T22:43:47.868Z,71.48
2023-03-29T22:46:16.183Z,71.31
2023-03-29T22:48:44.504Z,71.36
2023-03-29T22:51:12.297Z,71.23
2023-03-29T22:53:40.140Z,71.35
2023-03-29T22:56:09.301Z,71.32
2023-03-29T22:58:38.891Z,71.32
2023-03-29T23:01:07.413Z,71.38
2023-03-29T23:03:36.860Z,71.46
2023-03-29T23:06:05.351Z,71.49
2023-03-29T23:08:33.792Z,71.58
2023-03-29T23:11:03.828Z,71.59
2023-03-29T23:13:33.739Z,71.88
2023-03-29T23:16:03.726Z,71.95
2023-03-29T23:18:37.735Z,72.11
2023-03-29T23:21:06.647Z,72.25
2023-03-29T23:23:34.828Z,72.27
2023-03-29T23:26:04.078Z,72.49
2023-03-29T23:28:34.580Z,72.58
2023-03-29T23:31:09.953Z,72.67
2023-03-29T23:33:40.500Z,72.77
2023-03-29T23:36:10.032Z,72.76
2023-03-29T23:38:38.825Z,72.92
2023-03-29T23:41:08.650Z,72.97
2023-03-29T23:43:41.207Z,73.13
2023-03-29T23:46:11.548Z,73.06
2023-03-29T23:48:39.804Z,73.11
2023-03-29T23:51:10.522Z,73.05
2023-03-29T23:53:38.903Z,73.15
2023-03-29T23:56:10.834Z,72.97
2023-03-29T23:58:38.754Z,73.10
